createdAt,value
2023-02-05T00:01:25.789Z,5.47
2023-02-05T00:03:52.572Z,4.60
2023-02-05T00:06:19.335Z,5.10
2023-02-05T00:08:46.279Z,5.53
2023-02-05T00:11:13.371Z,4.60
2023-02-05T00:13:41.821Z,4.53
2023-02-05T00:16:16.494Z,4.60
2023-02-05T00:18:44.047Z,4.10
2023-02-05T00:21:11.550Z,4.32
2023-02-05T00:23:38.666Z,4.50
2023-02-05T00:26:07.594Z,3.92
2023-02-05T00:28:35.551Z,4.35
2023-02-05T00:31:08.173Z,3.88
2023-02-05T00:33:35.223Z,3.90
2023-02-05T00:36:02.121Z,4.25
2023-02-05T00:38:28.865Z,4.07
2023-02-05T00:40:55.662Z,4.30
2023-02-05T00:43:22.457Z,3.88
2023-02-05T00:45:49.219Z,4.00
2023-02-05T00:48:15.932Z,4.50
2023-02-05T00:50:42.912Z,4.15
2023-02-05T00:53:09.684Z,4.05
2023-02-05T00:55:36.491Z,3.63
2023-02-05T00:58:03.272Z,3.88
2023-02-05T01:00:30.363Z,3.88
2023-02-05T01:02:57.048Z,4.00
2023-02-05T01:05:23.858Z,4.28
2023-02-05T01:07:50.557Z,4.55
2023-02-05T01:10:17.624Z,4.63
2023-02-05T01:12:44.589Z,4.00
2023-02-05T01:15:13.247Z,4.22
2023-02-05T01:17:40.026Z,3.90
2023-02-05T01:20:07.822Z,3.50
2023-02-05T01:22:34.703Z,4.40
2023-02-05T01:25:01.396Z,3.92
2023-02-05T01:27:28.281Z,3.70
2023-02-05T01:29:54.991Z,4.63
2023-02-05T01:32:21.728Z,4.75
2023-02-05T01:34:48.578Z,4.45
2023-02-05T01:37:15.335Z,4.65
2023-02-05T01:39:42.288Z,4.88
2023-02-05T01:42:25.422Z,6.63
2023-02-05T01:45:23.191Z,8.10
2023-02-05T01:47:55.789Z,8.15
2023-02-05T01:50:32.183Z,6.40
2023-02-05T01:53:03.037Z,5.60
2023-02-05T01:55:30.795Z,4.90
2023-02-05T01:57:59.808Z,4.60
2023-02-05T02:00:26.671Z,5.35
2023-02-05T02:02:53.903Z,4.80
2023-02-05T02:05:20.812Z,4.70
2023-02-05T02:07:47.648Z,4.20
2023-02-05T02:10:16.997Z,4.18
2023-02-05T02:12:46.666Z,4.07
2023-02-05T02:15:17.521Z,4.07
2023-02-05T02:17:47.715Z,4.22
2023-02-05T02:20:26.183Z,4.50
2023-02-05T02:22:56.104Z,4.30
2023-02-05T02:25:44.439Z,3.85
2023-02-05T02:28:20.447Z,4.05
2023-02-05T02:33:24.337Z,4.05
2023-02-05T02:36:31.188Z,4.25
2023-02-05T02:39:23.636Z,4.55
2023-02-05T02:41:55.412Z,4.55
2023-02-05T02:44:33.802Z,4.22
2023-02-05T02:47:07.085Z,4.63
2023-02-05T02:49:45.554Z,4.50
2023-02-05T02:52:15.565Z,4.88
2023-02-05T02:54:46.024Z,5.07
2023-02-05T02:57:15.254Z,4.70
2023-02-05T02:59:43.563Z,5.00
2023-02-05T03:02:12.971Z,4.45
2023-02-05T03:04:44.358Z,4.93
2023-02-05T03:07:25.655Z,4.88
2023-02-05T03:10:00.973Z,4.32
2023-02-05T03:12:28.314Z,4.95
2023-02-05T03:14:55.731Z,4.90
2023-02-05T03:17:24.672Z,4.40
2023-02-05T03:19:59.686Z,5.30
2023-02-05T03:22:26.509Z,4.53
2023-02-05T03:24:53.728Z,4.95
2023-02-05T03:27:22.538Z,5.38
2023-02-05T03:29:50.056Z,4.82
2023-02-05T03:32:41.000Z,5.13
2023-02-05T03:35:34.393Z,4.85
2023-02-05T03:38:19.456Z,5.03
2023-02-05T03:40:50.477Z,5.28
2023-02-05T03:43:30.456Z,4.80
2023-02-05T03:46:07.712Z,4.93
2023-02-05T03:48:45.345Z,4.53
2023-02-05T03:51:42.783Z,4.70
2023-02-05T03:54:29.580Z,5.22
2023-02-05T03:57:25.412Z,5.47
2023-02-05T03:59:53.506Z,5.70
2023-02-05T04:02:22.076Z,9.65
2023-02-05T04:04:49.207Z,10.70
2023-02-05T04:07:15.982Z,9.23
2023-02-05T04:09:42.751Z,8.90
2023-02-05T04:12:10.237Z,7.78
2023-02-05T04:14:37.306Z,7.13
2023-02-05T04:17:04.101Z,7.95
2023-02-05T04:19:30.839Z,6.65
2023-02-05T04:21:57.568Z,6.15
2023-02-05T04:24:25.316Z,6.38
2023-02-05T04:26:52.394Z,5.43
2023-02-05T04:29:19.122Z,5.28
2023-02-05T04:31:45.875Z,5.50
2023-02-05T04:34:12.766Z,6.38
2023-02-05T04:36:39.540Z,6.03
2023-02-05T04:39:06.291Z,6.20
2023-02-05T04:41:33.033Z,5.38
2023-02-05T04:43:59.928Z,5.82
2023-02-05T04:46:26.671Z,5.60
2023-02-05T04:48:53.380Z,5.63
2023-02-05T04:51:20.078Z,5.07
2023-02-05T04:53:47.119Z,5.53
2023-02-05T04:56:16.218Z,6.07
2023-02-05T04:58:43.378Z,9.75
2023-02-05T05:01:15.468Z,11.98
2023-02-05T05:03:42.994Z,9.52
2023-02-05T05:06:09.937Z,7.95
2023-02-05T05:08:37.496Z,10.70
2023-02-05T05:11:09.336Z,11.48
2023-02-05T05:13:37.276Z,7.85
2023-02-05T05:16:05.487Z,8.07
2023-02-05T05:18:32.591Z,9.80
2023-02-05T05:20:59.460Z,10.88
2023-02-05T05:23:26.139Z,9.50
2023-02-05T05:25:53.979Z,7.15
2023-02-05T05:28:20.720Z,8.23
2023-02-05T05:30:47.711Z,7.10
2023-02-05T05:33:14.782Z,7.20
2023-02-05T05:35:41.510Z,7.03
2023-02-05T05:38:08.609Z,8.18
2023-02-05T05:40:54.138Z,7.03
2023-02-05T05:43:40.015Z,6.10
2023-02-05T05:46:07.712Z,6.20
2023-02-05T05:48:34.891Z,6.97
2023-02-05T05:51:01.756Z,6.18
2023-02-05T05:53:28.560Z,6.15
2023-02-05T05:55:55.489Z,6.10
2023-02-05T05:58:22.445Z,6.93
2023-02-05T06:00:49.229Z,6.65
2023-02-05T06:03:16.313Z,5.72
2023-02-05T06:05:43.353Z,6.50
2023-02-05T06:08:10.052Z,6.22
2023-02-05T06:10:36.904Z,5.82
2023-02-05T06:13:03.645Z,6.32
2023-02-05T06:15:30.366Z,5.97
2023-02-05T06:17:57.128Z,6.65
2023-02-05T06:20:23.862Z,7.47
2023-02-05T06:22:50.605Z,6.78
2023-02-05T06:25:17.910Z,6.78
2023-02-05T06:27:44.680Z,6.10
2023-02-05T06:30:12.050Z,6.63
2023-02-05T06:32:38.817Z,6.85
2023-02-05T06:35:06.272Z,6.43
2023-02-05T06:37:48.083Z,6.38
2023-02-05T06:40:18.182Z,6.53
2023-02-05T06:42:45.478Z,6.72
2023-02-05T06:45:12.378Z,6.65
2023-02-05T06:47:39.212Z,7.35
2023-02-05T06:50:07.018Z,6.90
2023-02-05T06:52:34.010Z,6.80
2023-02-05T06:55:00.714Z,7.57
2023-02-05T06:57:27.474Z,7.28
2023-02-05T06:59:54.203Z,6.72
2023-02-05T07:02:20.907Z,8.00
2023-02-05T07:04:47.601Z,9.88
2023-02-05T07:07:16.764Z,9.50
2023-02-05T07:09:44.088Z,8.98
2023-02-05T07:12:11.044Z,8.07
2023-02-05T07:14:41.840Z,7.28
2023-02-05T07:17:09.062Z,7.20
2023-02-05T07:19:37.183Z,7.30
2023-02-05T07:22:05.101Z,7.68
2023-02-05T07:24:32.186Z,7.75
2023-02-05T07:26:58.889Z,8.43
2023-02-05T07:29:25.824Z,7.82
2023-02-05T07:31:52.961Z,8.27
2023-02-05T07:34:19.868Z,8.35
2023-02-05T07:36:50.789Z,7.70
2023-02-05T07:39:17.586Z,8.10
2023-02-05T07:41:44.297Z,7.82
2023-02-05T07:44:11.353Z,9.10
2023-02-05T07:46:38.091Z,8.93
2023-02-05T07:49:04.861Z,8.70
2023-02-05T07:51:32.685Z,8.02
2023-02-05T07:53:59.460Z,7.93
2023-02-05T07:56:26.281Z,8.20
2023-02-05T07:58:53.034Z,7.97
2023-02-05T08:01:19.793Z,7.80
2023-02-05T08:03:46.662Z,8.65
2023-02-05T08:06:15.485Z,7.85
2023-02-05T08:08:42.373Z,7.60
2023-02-05T08:11:14.724Z,7.15
2023-02-05T08:13:42.334Z,7.40
2023-02-05T08:16:09.629Z,7.88
2023-02-05T08:18:36.382Z,7.75
2023-02-05T08:21:03.375Z,8.15
2023-02-05T08:23:30.250Z,6.75
2023-02-05T08:25:58.611Z,7.95
2023-02-05T08:28:26.577Z,7.82
2023-02-05T08:30:53.703Z,7.32
2023-02-05T08:33:20.444Z,7.40
2023-02-05T08:35:47.237Z,7.03
2023-02-05T08:38:14.083Z,6.75
2023-02-05T08:40:41.227Z,7.40
2023-02-05T08:43:08.556Z,7.38
2023-02-05T08:45:35.650Z,7.47
2023-02-05T08:48:02.697Z,7.15
2023-02-05T08:50:29.536Z,7.13
2023-02-05T08:52:56.568Z,7.50
2023-02-05T08:55:23.241Z,6.68
2023-02-05T08:57:49.988Z,7.97
2023-02-05T09:00:16.972Z,7.57
2023-02-05T09:02:44.679Z,9.13
2023-02-05T09:05:11.616Z,9.07
2023-02-05T09:07:42.348Z,9.52
2023-02-05T09:10:11.763Z,8.65
2023-02-05T09:12:38.654Z,8.80
2023-02-05T09:15:06.920Z,9.93
2023-02-05T09:17:33.702Z,11.23
2023-02-05T09:20:00.576Z,10.00
2023-02-05T09:22:27.329Z,8.57
2023-02-05T09:24:54.142Z,8.13
2023-02-05T09:27:21.006Z,8.52
2023-02-05T09:29:47.765Z,8.82
2023-02-05T09:32:14.520Z,7.70
2023-02-05T09:34:41.362Z,8.90
2023-02-05T09:37:08.097Z,8.50
2023-02-05T09:40:18.471Z,7.57
2023-02-05T09:42:32.041Z,8.57
2023-02-05T09:45:01.739Z,8.25
2023-02-05T09:47:38.737Z,8.23
2023-02-05T09:50:14.797Z,8.18
2023-02-05T09:55:24.960Z,7.45
2023-02-05T09:57:56.099Z,7.90
2023-02-05T10:00:25.610Z,8.77
2023-02-05T10:02:58.170Z,8.88
2023-02-05T10:05:29.799Z,10.70
2023-02-05T10:08:16.918Z,8.02
2023-02-05T10:10:50.133Z,7.22
2023-02-05T10:13:31.437Z,8.57
2023-02-05T10:16:13.156Z,7.82
2023-02-05T10:18:59.442Z,7.78
2023-02-05T10:22:15.155Z,7.97
2023-02-05T10:25:03.079Z,8.30
2023-02-05T10:27:44.988Z,7.57
2023-02-05T10:30:20.732Z,9.70
2023-02-05T10:33:00.393Z,7.95
2023-02-05T10:35:50.978Z,8.38
2023-02-05T10:38:24.449Z,7.55
2023-02-05T10:41:01.134Z,8.30
2023-02-05T10:43:35.746Z,8.30
2023-02-05T10:46:03.544Z,8.80
2023-02-05T10:48:36.694Z,8.73
2023-02-05T10:51:06.992Z,8.90
2023-02-05T10:53:36.149Z,9.05
2023-02-05T10:56:04.484Z,9.25
2023-02-05T10:58:43.456Z,8.73
2023-02-05T11:01:33.582Z,8.20
2023-02-05T11:04:12.024Z,8.73
2023-02-05T11:06:45.449Z,8.63
2023-02-05T11:09:24.361Z,8.55
2023-02-05T11:11:58.707Z,8.32
2023-02-05T11:14:37.512Z,8.90
2023-02-05T11:17:20.405Z,8.85
2023-02-05T11:20:18.266Z,8.65
2023-02-05T11:22:48.148Z,8.65
2023-02-05T11:25:22.535Z,7.57
2023-02-05T11:27:59.130Z,8.60
2023-02-05T11:30:50.781Z,8.48
2023-02-05T11:33:21.266Z,8.35
2023-02-05T11:35:59.512Z,8.73
2023-02-05T11:38:48.858Z,9.25
2023-02-05T11:41:30.559Z,8.82
2023-02-05T11:44:00.228Z,9.05
2023-02-05T11:46:31.885Z,10.30
2023-02-05T11:49:01.041Z,8.60
2023-02-05T11:51:32.566Z,9.18
2023-02-05T11:54:01.430Z,8.55
2023-02-05T11:56:28.260Z,9.95
2023-02-05T11:59:04.580Z,8.15
2023-02-05T12:01:34.870Z,8.57
2023-02-05T12:04:21.891Z,8.20
2023-02-05T12:07:12.903Z,8.63
2023-02-05T12:09:39.780Z,8.27
2023-02-05T12:12:30.935Z,8.95
2023-02-05T12:15:24.820Z,8.77
2023-02-05T12:18:18.856Z,7.80
2023-02-05T12:21:21.081Z,8.88
2023-02-05T12:24:24.255Z,8.95
2023-02-05T12:26:59.127Z,9.07
2023-02-05T12:29:28.751Z,9.88
2023-02-05T12:32:12.982Z,9.05
2023-02-05T12:34:58.008Z,10.30
2023-02-05T12:37:46.446Z,8.77
2023-02-05T12:40:40.599Z,9.40
2023-02-05T12:43:25.931Z,9.23
2023-02-05T12:46:07.044Z,8.73
2023-02-05T12:48:40.851Z,9.45
2023-02-05T12:51:30.794Z,9.25
2023-02-05T12:54:03.306Z,9.95
2023-02-05T12:56:36.354Z,9.85
2023-02-05T12:59:12.887Z,9.32
2023-02-05T13:01:45.319Z,11.02
2023-02-05T13:04:32.412Z,9.88
2023-02-05T13:07:31.432Z,11.98
2023-02-05T13:10:14.007Z,10.30
2023-02-05T13:12:46.819Z,10.32
2023-02-05T13:15:30.885Z,11.55
2023-02-05T13:18:23.096Z,11.25
2023-02-05T13:21:16.678Z,10.82
2023-02-05T13:24:03.876Z,10.15
2023-02-05T13:26:54.537Z,9.30
2023-02-05T13:29:24.729Z,9.68
2023-02-05T13:31:57.071Z,8.95
2023-02-05T13:34:26.595Z,9.45
2023-02-05T13:37:24.922Z,9.50
2023-02-05T13:40:00.644Z,9.25
2023-02-05T13:42:42.233Z,9.02
2023-02-05T13:45:52.623Z,10.25
2023-02-05T13:48:53.302Z,9.45
2023-02-05T13:51:39.106Z,8.48
2023-02-05T13:54:53.844Z,9.30
2023-02-05T13:58:04.304Z,9.80
2023-02-05T14:00:32.225Z,9.85
2023-02-05T14:03:05.583Z,11.15
2023-02-05T14:05:39.334Z,10.95
2023-02-05T14:08:07.000Z,11.35
2023-02-05T14:10:40.931Z,10.82
2023-02-05T14:13:24.668Z,11.15
2023-02-05T14:15:57.334Z,11.20
2023-02-05T14:18:45.179Z,11.32
2023-02-05T14:21:30.177Z,12.30
2023-02-05T14:24:03.042Z,11.95
2023-02-05T14:26:52.222Z,11.48
2023-02-05T14:29:39.416Z,9.68
2023-02-05T14:32:08.886Z,10.45
2023-02-05T14:34:38.743Z,9.07
2023-02-05T14:37:05.692Z,9.38
2023-02-05T14:39:35.016Z,9.10
2023-02-05T14:42:05.454Z,9.13
2023-02-05T14:44:33.604Z,9.98
2023-02-05T14:47:19.344Z,8.82
2023-02-05T14:49:48.455Z,10.07
2023-02-05T14:52:38.885Z,9.38
2023-02-05T14:55:14.674Z,9.70
2023-02-05T14:57:53.632Z,10.50
2023-02-05T15:00:38.628Z,10.30
2023-02-05T15:03:05.632Z,10.55
2023-02-05T15:06:07.449Z,10.70
2023-02-05T15:08:45.437Z,11.15
2023-02-05T15:11:33.419Z,10.45
2023-02-05T15:14:22.336Z,10.75
2023-02-05T15:17:13.964Z,11.32
2023-02-05T15:19:45.454Z,11.02
2023-02-05T15:22:36.274Z,10.10
2023-02-05T15:25:09.807Z,10.93
2023-02-05T15:27:47.982Z,11.63
2023-02-05T15:30:20.042Z,10.20
2023-02-05T15:33:03.708Z,11.48
2023-02-05T15:35:32.969Z,11.43
2023-02-05T15:38:19.944Z,12.05
2023-02-05T15:40:47.143Z,10.52
2023-02-05T15:43:20.780Z,11.02
2023-02-05T15:45:47.982Z,11.05
2023-02-05T15:48:19.068Z,11.82
2023-02-05T15:51:00.589Z,10.88
2023-02-05T15:53:41.717Z,13.13
2023-02-05T15:56:20.389Z,11.30
2023-02-05T15:59:01.430Z,10.40
2023-02-05T16:01:41.946Z,9.63
2023-02-05T16:04:29.876Z,10.30
2023-02-05T16:06:57.594Z,10.63
2023-02-05T16:09:26.323Z,10.80
2023-02-05T16:11:53.216Z,10.10
2023-02-05T16:14:22.958Z,10.35
2023-02-05T16:16:49.612Z,11.05
2023-02-05T16:19:24.960Z,11.07
2023-02-05T16:21:59.199Z,11.07
2023-02-05T16:24:38.399Z,11.07
2023-02-05T16:27:16.202Z,11.43
2023-02-05T16:29:56.895Z,11.15
2023-02-05T16:32:42.552Z,10.73
2023-02-05T16:35:22.413Z,11.68
2023-02-05T16:37:49.374Z,11.07
2023-02-05T16:40:37.305Z,10.80
2023-02-05T16:44:03.774Z,11.27
2023-02-05T17:18:34.200Z,9.63
2023-02-05T17:21:24.488Z,10.48
2023-02-05T17:23:53.193Z,11.38
2023-02-05T17:26:21.049Z,14.07
2023-02-05T17:28:53.281Z,11.20
2023-02-05T17:31:24.919Z,8.98
2023-02-05T17:33:53.540Z,8.57
2023-02-05T17:36:21.021Z,8.68
2023-02-05T17:38:48.945Z,9.40
2023-02-05T17:41:46.877Z,13.75
2023-02-05T17:44:15.955Z,10.73
2023-02-05T17:46:44.074Z,10.30
2023-02-05T17:49:11.201Z,9.25
2023-02-05T17:51:42.647Z,9.40
2023-02-05T17:54:21.452Z,12.95
2023-02-05T17:56:50.210Z,13.13
2023-02-05T17:59:22.719Z,10.38
2023-02-05T18:01:50.571Z,10.55
2023-02-05T18:04:18.653Z,10.38
2023-02-05T18:06:48.565Z,9.65
2023-02-05T18:09:16.331Z,9.77
2023-02-05T18:11:43.223Z,10.27
2023-02-05T18:14:10.281Z,9.02
2023-02-05T18:16:37.375Z,7.72
2023-02-05T18:19:04.529Z,11.38
2023-02-05T18:21:31.310Z,11.98
2023-02-05T18:23:58.258Z,12.40
2023-02-05T18:26:27.085Z,12.98
2023-02-05T18:28:54.547Z,12.70
2023-02-05T18:31:21.861Z,10.80
2023-02-05T18:33:51.689Z,12.55
2023-02-05T18:36:18.840Z,11.48
2023-02-05T18:38:46.032Z,12.57
2023-02-05T18:41:14.415Z,9.70
2023-02-05T18:43:41.469Z,9.35
2023-02-05T18:46:17.229Z,10.13
2023-02-05T18:48:45.797Z,8.55
2023-02-05T18:51:15.085Z,10.10
2023-02-05T18:53:43.270Z,9.95
2023-02-05T18:56:17.261Z,8.85
2023-02-05T18:58:45.271Z,9.15
2023-02-05T19:01:16.269Z,9.18
2023-02-05T19:03:43.869Z,9.13
2023-02-05T19:06:12.886Z,9.13
2023-02-05T19:08:39.648Z,9.68
2023-02-05T19:11:20.518Z,9.45
2023-02-05T19:13:48.343Z,8.23
2023-02-05T19:16:17.000Z,8.23
2023-02-05T19:18:45.559Z,9.73
2023-02-05T19:21:18.201Z,13.15
2023-02-05T19:23:50.505Z,11.05
2023-02-05T19:26:21.013Z,9.45
2023-02-05T19:28:59.577Z,8.50
2023-02-05T19:31:30.144Z,9.38
2023-02-05T19:33:57.741Z,8.85
2023-02-05T19:36:25.778Z,7.82
2023-02-05T19:38:53.861Z,8.20
2023-02-05T19:41:26.333Z,9.35
2023-02-05T19:43:55.765Z,10.00
2023-02-05T19:46:25.963Z,10.63
2023-02-05T19:48:54.422Z,11.32
2023-02-05T19:51:21.746Z,8.98
2023-02-05T19:53:48.927Z,9.13
2023-02-05T19:56:21.004Z,9.77
2023-02-05T19:58:50.619Z,11.35
2023-02-05T20:01:29.915Z,13.70
2023-02-05T20:04:05.917Z,14.65
2023-02-05T20:06:32.735Z,15.10
2023-02-05T20:09:01.301Z,13.27
2023-02-05T20:11:30.413Z,14.50
2023-02-05T20:14:01.467Z,12.20
2023-02-05T20:16:28.186Z,12.38
2023-02-05T20:18:57.462Z,10.57
2023-02-05T20:21:26.621Z,8.70
2023-02-05T20:23:54.869Z,8.68
2023-02-05T20:26:22.810Z,8.57
2023-02-05T20:29:11.539Z,9.80
2023-02-05T20:31:43.459Z,8.70
2023-02-05T20:34:18.584Z,10.82
2023-02-05T20:36:51.454Z,9.20
2023-02-05T20:39:19.275Z,9.27
2023-02-05T20:41:48.817Z,9.18
2023-02-05T20:44:16.864Z,8.25
2023-02-05T20:46:44.527Z,10.75
2023-02-05T20:49:11.828Z,10.23
2023-02-05T20:51:38.837Z,10.48
2023-02-05T20:54:06.370Z,11.80
2023-02-05T20:56:33.850Z,11.70
2023-02-05T20:59:02.256Z,12.38
2023-02-05T21:01:31.471Z,12.32
2023-02-05T21:04:00.983Z,12.38
2023-02-05T21:06:34.388Z,12.93
2023-02-05T21:09:01.594Z,12.35
2023-02-05T21:11:29.459Z,18.10
2023-02-05T21:13:58.194Z,19.95
2023-02-05T21:16:26.819Z,21.70
2023-02-05T21:18:54.285Z,22.33
2023-02-05T21:21:24.790Z,20.83
2023-02-05T21:24:05.848Z,21.13
2023-02-05T21:26:36.371Z,17.27
2023-02-05T21:29:06.540Z,22.67
2023-02-05T21:31:39.323Z,28.23
2023-02-05T21:34:11.439Z,22.83
2023-02-05T21:36:38.187Z,23.38
2023-02-05T21:39:05.127Z,25.10
2023-02-05T21:41:32.076Z,20.83
2023-02-05T21:44:00.225Z,16.92
2023-02-05T21:46:29.493Z,15.82
2023-02-05T21:48:57.810Z,17.00
2023-02-05T21:51:27.188Z,14.55
2023-02-05T21:53:59.621Z,15.27
2023-02-05T21:56:29.377Z,13.18
2023-02-05T21:58:56.577Z,9.18
2023-02-05T22:01:29.035Z,10.55
2023-02-05T22:04:01.132Z,10.20
2023-02-05T22:06:30.697Z,9.93
2023-02-05T22:08:58.410Z,9.57
2023-02-05T22:11:26.679Z,11.10
2023-02-05T22:13:55.761Z,10.50
2023-02-05T22:16:25.120Z,10.45
2023-02-05T22:18:53.243Z,9.63
2023-02-05T22:21:30.637Z,11.15
2023-02-05T22:23:59.367Z,10.77
2023-02-05T22:26:35.692Z,11.32
2023-02-05T22:29:04.514Z,11.13
2023-02-05T22:31:31.673Z,11.98
2023-02-05T22:33:58.458Z,11.90
2023-02-05T22:36:27.874Z,12.13
2023-02-05T22:38:55.679Z,12.00
2023-02-05T22:41:25.332Z,12.18
2023-02-05T22:43:53.297Z,12.60
2023-02-05T22:46:22.168Z,12.50
2023-02-05T22:48:50.356Z,11.98
2023-02-05T22:51:23.486Z,12.30
2023-02-05T22:53:52.251Z,11.68
2023-02-05T22:56:19.075Z,12.50
2023-02-05T22:58:46.990Z,12.85
2023-02-05T23:01:28.434Z,13.10
2023-02-05T23:03:56.141Z,11.23
2023-02-05T23:06:28.028Z,11.98
2023-02-05T23:09:06.770Z,12.38
2023-02-05T23:11:34.569Z,11.77
2023-02-05T23:14:03.810Z,11.93
2023-02-05T23:16:33.587Z,11.35
2023-02-05T23:19:04.289Z,12.10
2023-02-05T23:21:33.484Z,11.20
2023-02-05T23:24:00.664Z,10.95
2023-02-05T23:26:33.603Z,12.43
2023-02-05T23:29:01.003Z,12.63
2023-02-05T23:31:28.697Z,11.55
2023-02-05T23:33:55.749Z,11.27
2023-02-05T23:36:23.249Z,11.02
2023-02-05T23:38:50.224Z,10.90
2023-02-05T23:41:35.671Z,10.93
2023-02-05T23:44:22.995Z,9.60
2023-02-05T23:46:50.748Z,9.88
2023-02-05T23:49:23.152Z,11.38
2023-02-05T23:51:52.346Z,9.80
2023-02-05T23:54:19.978Z,10.15
2023-02-05T23:56:47.173Z,10.77
2023-02-05T23:59:14.600Z,11.02
